METAR Analyzer

一覧表示

Hello, Guest. (Login)

LTBA/ISL  -  イスタンブール・アタテュルク

観測日時
2020-10-25 13:20 (UTC) (26分前)
気温
23
露点
15
湿数
8
相対湿度
60.7%
QNH
1012hPa
推定現地気圧
1006.0hPa
推定海面気圧
1011.8hPa
体感温度
19
(無風時)
22.3
HI
22.9
気温前日比
+3
体感温度前日比
+4.8
HI前日比
+2.7
水平視程
>10000m
鉛直視程
データなし
雲底高度
No dense clouds
V/I
VMC (VFR)
RVR
No RVR data
卓越風
2kt from VRB
ガスト
No gust
降水
報告なし
その他の天気
報告なし
報告なし

LTBA 251320Z VRB02KT CAVOK 23/15 Q1012 NOSIG RMK RWY23 13003KT

株式会社マネーパートナーズ 【Manepa Card】

LTFM/IST  -  イスタンブール (新)

観測日時
2020-10-25 13:20 (UTC) (26分前)
気温
23
露点
15
湿数
8
相対湿度
60.7%
QNH
1012hPa
推定現地気圧
1000.2hPa
推定海面気圧
1011.7hPa
体感温度
16.1
(無風時)
22.3
HI
22.9
気温前日比
-2
体感温度前日比
-2.5
HI前日比
-1.8
水平視程
>10000m
鉛直視程
データなし
雲底高度
No dense clouds
V/I
VMC (VFR)
RVR
No RVR data
卓越風
8kt from 50° (340° ~ 80°)
ガスト
No gust
降水
報告なし
その他の天気
報告なし
報告なし

LTFM 251320Z 05008KT 340V080 CAVOK 23/15 Q1012 NOSIG RMK RWY17L 09008KT RWY34L 05007KT RWY16R 08008KT RWY36 08008KT RWY18 09009KT

6.3msec